Time;durP1;ratioP1;P1;durP2;ratioP2;P2;SDS_P1;SDS_P2;PMS_P1;PMS_P2;Temp;Humidity;BMP_temperature;BMP_pressure;BME280_temperature;BME280_humidity;BME280_pressure;Samples;Min_cycle;Max_cycle;Signal;HPM_P1;HPM_P2
2022/04/09 00:01:57;;;;;;;;;;;;;;;;;;5113322;28;817;-58
2022/04/09 00:04:22;;;;;;;;;;;;;;;;;;5095209;28;876;-58
2022/04/09 00:06:47;;;;;;;;;;;;;;;;;;5113154;28;1010;-58
2022/04/09 00:09:13;;;;;;;;;;;;;;;;;;5095070;28;817;-59
2022/04/09 00:11:38;;;;;;;;;;;;;;;;;;5095134;28;899;-59
2022/04/09 00:14:04;;;;;;;;;;;;;;;;;;5113192;28;899;-58
2022/04/09 00:16:29;;;;;;;;;;;;;;;;;;5112957;28;1909;-59
2022/04/09 00:18:55;;;;;;;;;;;;;;;;;;5112447;28;931;-58
2022/04/09 00:21:20;;;;;;;;;;;;;;;;;;5113128;28;999;-58
2022/04/09 00:23:45;;;;;;;;;;;;;;;;;;5112789;28;1089;-58
2022/04/09 00:26:10;;;;;;;;;;;;;;;;;;5112045;28;856;-59
2022/04/09 00:28:35;;;;;;;;;;;;;;;;;;5112359;28;749;-59
2022/04/09 00:31:01;;;;;;;;;;;;;;;;;;5112576;28;836;-58
2022/04/09 00:33:26;;;;;;;;;;;;;;;;;;5112301;28;977;-59
2022/04/09 00:35:51;;;;;;;;;;;;;;;;;;5112133;28;1910;-59
2022/04/09 00:38:17;;;;;;;;;;;;;;;;;;5111611;28;1043;-59
2022/04/09 00:40:42;;;;;;;;;;;;;;;;;;5112595;28;931;-59
2022/04/09 00:43:07;;;;;;;;;;;;;;;;;;5111917;28;834;-59
2022/04/09 00:45:32;;;;;;;;;;;;;;;;;;5111898;28;793;-59
2022/04/09 00:47:58;;;;;;;;;;;;;;;;;;5111724;28;847;-59
2022/04/09 00:50:23;;;;;;;;;;;;;;;;;;5111918;28;901;-59
2022/04/09 00:52:55;;;;;;;;;;;;;;;;;;5112270;28;959;-58
2022/04/09 00:56:12;;;;;;;;;;;;;;;;;;5111766;28;1922;-58
2022/04/09 00:58:11;;;;;;;;;;;;;;;;;;5111671;28;785;-58
2022/04/09 01:00:36;;;;;;;;;;;;;;;;;;5112734;28;820;-59
2022/04/09 01:03:02;;;;;;;;;;;;;;;;;;5111415;28;959;-59
2022/04/09 01:05:28;;;;;;;;;;;;;;;;;;5111710;28;906;-58
2022/04/09 01:07:53;;;;;;;;;;;;;;;;;;5111613;28;819;-59
2022/04/09 01:10:18;;;;;;;;;;;;;;;;;;5111500;28;816;-59
2022/04/09 01:12:44;;;;;;;;;;;;;;;;;;5112008;28;673;-58
2022/04/09 01:15:09;;;;;;;;;;;;;;;;;;5111346;28;1949;-58
2022/04/09 01:17:35;;;;;;;;;;;;;;;;;;5111265;28;919;-58
2022/04/09 01:20:13;;;;;;;;;;;;;;;;;;5111479;28;871;-58
2022/04/09 01:22:38;;;;;;;;;;;;;;;;;;5111576;28;762;-58
2022/04/09 01:25:03;;;;;;;;;;;;;;;;;;5110968;28;990;-58
2022/04/09 01:27:29;;;;;;;;;;;;;;;;;;5111320;28;611;-58
2022/04/09 01:29:55;;;;;;;;;;;;;;;;;;5111677;28;879;-58
2022/04/09 01:32:20;;;;;;;;;;;;;;;;;;5093498;28;1044;-58
2022/04/09 01:34:45;;;;;;;;;;;;;;;;;;5093490;28;1901;-59
2022/04/09 01:37:11;;;;;;;;;;;;;;;;;;5111092;28;1309;-59
2022/04/09 01:39:36;;;;;;;;;;;;;;;;;;5111826;28;844;-59
2022/04/09 01:42:02;;;;;;;;;;;;;;;;;;5111724;28;828;-58
2022/04/09 01:44:27;;;;;;;;;;;;;;;;;;5111609;28;900;-59
2022/04/09 01:46:52;;;;;;;;;;;;;;;;;;5112145;28;866;-58
2022/04/09 01:49:18;;;;;;;;;;;;;;;;;;5111111;28;942;-59
2022/04/09 01:51:47;;;;;;;;;;;;;;;;;;5111925;28;832;-58
2022/04/09 01:54:12;;;;;;;;;;;;;;;;;;5111046;28;926;-58
2022/04/09 01:56:39;;;;;;;;;;;;;;;;;;5111864;28;1981;-59
2022/04/09 01:59:04;;;;;;;;;;;;;;;;;;5110460;28;848;-59
2022/04/09 02:01:29;;;;;;;;;;;;;;;;;;5111389;28;856;-58
2022/04/09 02:03:54;;;;;;;;;;;;;;;;;;5111257;28;907;-59
2022/04/09 02:06:20;;;;;;;;;;;;;;;;;;5111003;28;838;-58
2022/04/09 02:08:45;;;;;;;;;;;;;;;;;;5111155;28;1151;-59
2022/04/09 02:11:10;;;;;;;;;;;;;;;;;;5110457;28;832;-58
2022/04/09 02:13:35;;;;;;;;;;;;;;;;;;5110845;28;979;-59
2022/04/09 02:16:01;;;;;;;;;;;;;;;;;;5110372;28;2026;-59
2022/04/09 02:18:26;;;;;;;;;;;;;;;;;;5075685;28;963;-59
2022/04/09 02:20:53;;;;;;;;;;;;;;;;;;5092997;28;1509;-58
2022/04/09 02:23:18;;;;;;;;;;;;;;;;;;5092138;28;1242;-58
2022/04/09 02:25:43;;;;;;;;;;;;;;;;;;5111160;28;916;-58
2022/04/09 02:28:08;;;;;;;;;;;;;;;;;;5110847;28;880;-58
2022/04/09 02:30:34;;;;;;;;;;;;;;;;;;5111245;28;910;-58
2022/04/09 02:32:59;;;;;;;;;;;;;;;;;;5110765;28;1007;-58
2022/04/09 02:35:26;;;;;;;;;;;;;;;;;;5110660;28;1985;-58
2022/04/09 02:37:52;;;;;;;;;;;;;;;;;;5092757;28;1084;-59
2022/04/09 02:40:17;;;;;;;;;;;;;;;;;;5110116;28;844;-58
2022/04/09 02:42:42;;;;;;;;;;;;;;;;;;5110806;28;924;-58
2022/04/09 02:45:08;;;;;;;;;;;;;;;;;;5110140;28;815;-58
2022/04/09 02:47:34;;;;;;;;;;;;;;;;;;5110509;28;1250;-58
2022/04/09 02:49:59;;;;;;;;;;;;;;;;;;5110563;28;859;-59
2022/04/09 02:52:27;;;;;;;;;;;;;;;;;;5110070;28;896;-58
2022/04/09 02:54:53;;;;;;;;;;;;;;;;;;5110869;28;1961;-58
2022/04/09 02:57:18;;;;;;;;;;;;;;;;;;5091552;28;1116;-58
2022/04/09 02:59:43;;;;;;;;;;;;;;;;;;5110948;28;824;-59
2022/04/09 03:02:08;;;;;;;;;;;;;;;;;;5110536;28;1038;-58
2022/04/09 03:04:34;;;;;;;;;;;;;;;;;;5110460;28;1166;-58
2022/04/09 03:06:59;;;;;;;;;;;;;;;;;;5110894;28;959;-58
2022/04/09 03:09:25;;;;;;;;;;;;;;;;;;5109915;28;824;-58
2022/04/09 03:11:50;;;;;;;;;;;;;;;;;;5113474;28;750;-58
2022/04/09 03:14:15;;;;;;;;;;;;;;;;;;5113450;28;942;-58
2022/04/09 03:16:41;;;;;;;;;;;;;;;;;;5113994;28;1963;-59
2022/04/09 03:19:06;;;;;;;;;;;;;;;;;;5114354;28;821;-59
2022/04/09 03:21:31;;;;;;;;;;;;;;;;;;5114185;28;995;-58
2022/04/09 03:23:56;;;;;;;;;;;;;;;;;;5114655;28;820;-59
2022/04/09 03:26:22;;;;;;;;;;;;;;;;;;5113829;28;927;-59
2022/04/09 03:28:47;;;;;;;;;;;;;;;;;;5114151;28;797;-58
2022/04/09 03:31:12;;;;;;;;;;;;;;;;;;5114015;28;966;-59
2022/04/09 03:33:38;;;;;;;;;;;;;;;;;;5114071;28;1126;-59
2022/04/09 03:36:03;;;;;;;;;;;;;;;;;;5114124;28;1906;-58
2022/04/09 03:38:28;;;;;;;;;;;;;;;;;;5113787;28;1097;-58
2022/04/09 03:40:53;;;;;;;;;;;;;;;;;;5114349;28;834;-59
2022/04/09 03:43:19;;;;;;;;;;;;;;;;;;5094945;28;1403;-59
2022/04/09 03:45:44;;;;;;;;;;;;;;;;;;5113975;28;919;-59
2022/04/09 03:48:10;;;;;;;;;;;;;;;;;;5114107;28;840;-59
2022/04/09 03:50:36;;;;;;;;;;;;;;;;;;5113779;28;946;-59
2022/04/09 03:53:02;;;;;;;;;;;;;;;;;;5114287;28;837;-59
2022/04/09 03:55:29;;;;;;;;;;;;;;;;;;5095157;28;2017;-59
2022/04/09 03:57:55;;;;;;;;;;;;;;;;;;5113868;28;867;-59
2022/04/09 04:00:21;;;;;;;;;;;;;;;;;;5095354;28;836;-59
2022/04/09 04:02:46;;;;;;;;;;;;;;;;;;5113860;28;872;-59
2022/04/09 04:05:11;;;;;;;;;;;;;;;;;;5113357;28;954;-59
2022/04/09 04:07:42;;;;;;;;;;;;;;;;;;5112859;28;962;-59
2022/04/09 04:10:10;;;;;;;;;;;;;;;;;;5112763;28;859;-58
2022/04/09 04:12:36;;;;;;;;;;;;;;;;;;5112937;28;836;-59
2022/04/09 04:15:01;;;;;;;;;;;;;;;;;;5113013;28;2303;-59
2022/04/09 04:17:26;;;;;;;;;;;;;;;;;;5112088;28;805;-58
2022/04/09 04:19:51;;;;;;;;;;;;;;;;;;5112973;28;895;-59
2022/04/09 04:22:18;;;;;;;;;;;;;;;;;;5112278;28;1105;-59
2022/04/09 04:24:43;;;;;;;;;;;;;;;;;;5094905;28;903;-59
2022/04/09 04:27:09;;;;;;;;;;;;;;;;;;5112837;28;1042;-59
2022/04/09 04:29:34;;;;;;;;;;;;;;;;;;5112840;28;883;-59
2022/04/09 04:31:59;;;;;;;;;;;;;;;;;;5094277;28;1398;-58
2022/04/09 04:34:25;;;;;;;;;;;;;;;;;;5112738;28;953;-58
2022/04/09 04:36:50;;;;;;;;;;;;;;;;;;5112841;28;1885;-59
2022/04/09 04:39:16;;;;;;;;;;;;;;;;;;5112236;28;1383;-58
2022/04/09 04:41:41;;;;;;;;;;;;;;;;;;5111808;28;1053;-58
2022/04/09 04:44:06;;;;;;;;;;;;;;;;;;5112473;28;832;-59
2022/04/09 04:46:32;;;;;;;;;;;;;;;;;;5112027;28;840;-59
2022/04/09 04:48:58;;;;;;;;;;;;;;;;;;5112306;28;858;-59
2022/04/09 04:51:23;;;;;;;;;;;;;;;;;;5113335;27;1139;-59
2022/04/09 04:53:48;;;;;;;;;;;;;;;;;;5132554;27;813;-59
2022/04/09 04:56:13;;;;;;;;;;;;;;;;;;5132466;27;1913;-59
2022/04/09 04:58:39;;;;;;;;;;;;;;;;;;5132582;27;887;-59
2022/04/09 05:01:04;;;;;;;;;;;;;;;;;;5133249;27;955;-59
2022/04/09 05:03:29;;;;;;;;;;;;;;;;;;5132267;27;824;-59
2022/04/09 05:05:55;;;;;;;;;;;;;;;;;;5132768;27;804;-59
2022/04/09 05:08:20;;;;;;;;;;;;;;;;;;5132592;27;832;-58
2022/04/09 05:10:45;;;;;;;;;;;;;;;;;;5132199;27;812;-59
2022/04/09 05:13:10;;;;;;;;;;;;;;;;;;5132520;27;891;-58
2022/04/09 05:15:36;;;;;;;;;;;;;;;;;;5131773;27;1902;-59
2022/04/09 05:18:01;;;;;;;;;;;;;;;;;;5132040;27;856;-59
2022/04/09 05:20:26;;;;;;;;;;;;;;;;;;5113136;27;2489;-59
2022/04/09 05:22:52;;;;;;;;;;;;;;;;;;5132530;27;915;-59
2022/04/09 05:25:21;;;;;;;;;;;;;;;;;;5132197;27;1039;-59
2022/04/09 05:27:47;;;;;;;;;;;;;;;;;;5132156;27;808;-59
2022/04/09 05:30:12;;;;;;;;;;;;;;;;;;5132553;27;911;-59
2022/04/09 05:32:39;;;;;;;;;;;;;;;;;;5113010;27;984;-59
2022/04/09 05:35:05;;;;;;;;;;;;;;;;;;5132151;27;1955;-59
2022/04/09 05:37:31;;;;;;;;;;;;;;;;;;5131595;27;1229;-59
2022/04/09 05:39:56;;;;;;;;;;;;;;;;;;5132884;27;868;-58
2022/04/09 05:42:23;;;;;;;;;;;;;;;;;;5132140;27;816;-58
2022/04/09 05:44:49;;;;;;;;;;;;;;;;;;5113936;27;1353;-59
2022/04/09 05:47:14;;;;;;;;;;;;;;;;;;5132393;27;1023;-59
2022/04/09 05:49:39;;;;;;;;;;;;;;;;;;5132158;27;839;-60
2022/04/09 05:52:05;;;;;;;;;;;;;;;;;;5132182;27;816;-59
2022/04/09 05:54:31;;;;;;;;;;;;;;;;;;5131442;27;1003;-59
2022/04/09 05:56:57;;;;;;;;;;;;;;;;;;5131685;27;1971;-59
2022/04/09 05:59:25;;;;;;;;;;;;;;;;;;5131761;28;837;-59
2022/04/09 06:01:51;;;;;;;;;;;;;;;;;;5131698;28;896;-59
2022/04/09 06:04:19;;;;;;;;;;;;;;;;;;5131804;28;1041;-59
2022/04/09 06:06:44;;;;;;;;;;;;;;;;;;5131415;28;843;-59
2022/04/09 06:09:09;;;;;;;;;;;;;;;;;;5132065;28;1124;-59
2022/04/09 06:11:35;;;;;;;;;;;;;;;;;;5095726;28;919;-59
2022/04/09 06:14:00;;;;;;;;;;;;;;;;;;5132192;28;949;-59
2022/04/09 06:16:25;;;;;;;;;;;;;;;;;;5113074;28;1902;-59
2022/04/09 06:18:51;;;;;;;;;;;;;;;;;;5132217;28;832;-59
2022/04/09 06:21:16;;;;;;;;;;;;;;;;;;5131960;28;832;-59
2022/04/09 06:23:41;;;;;;;;;;;;;;;;;;5112766;28;1398;-60
2022/04/09 06:26:07;;;;;;;;;;;;;;;;;;5131626;28;894;-59
2022/04/09 06:28:34;;;;;;;;;;;;;;;;;;5131306;28;899;-59
2022/04/09 06:30:59;;;;;;;;;;;;;;;;;;5131627;28;871;-59
2022/04/09 06:33:24;;;;;;;;;;;;;;;;;;5131025;28;894;-60
2022/04/09 06:35:50;;;;;;;;;;;;;;;;;;5113127;28;1905;-60
2022/04/09 06:38:15;;;;;;;;;;;;;;;;;;5131237;28;1267;-60
2022/04/09 06:40:40;;;;;;;;;;;;;;;;;;5130205;28;757;-60
2022/04/09 06:43:06;;;;;;;;;;;;;;;;;;5131076;28;912;-60
2022/04/09 06:45:31;;;;;;;;;;;;;;;;;;5133094;27;887;-60
2022/04/09 06:47:57;;;;;;;;;;;;;;;;;;5134951;27;861;-60
2022/04/09 06:50:22;;;;;;;;;;;;;;;;;;5134672;27;906;-59
2022/04/09 06:52:47;;;;;;;;;;;;;;;;;;5134421;27;848;-59
2022/04/09 06:55:12;;;;;;;;;;;;;;;;;;5134704;27;1977;-60
2022/04/09 06:57:39;;;;;;;;;;;;;;;;;;5134196;27;824;-59
2022/04/09 07:00:06;;;;;;;;;;;;;;;;;;5135290;27;866;-59
2022/04/09 07:02:32;;;;;;;;;;;;;;;;;;5134895;27;834;-59
2022/04/09 07:04:57;;;;;;;;;;;;;;;;;;5134567;27;769;-59
2022/04/09 07:07:24;;;;;;;;;;;;;;;;;;5141103;27;1193;-60
2022/04/09 07:09:50;;;;;;;;;;;;;;;;;;5136386;27;1214;-60
2022/04/09 07:12:15;;;;;;;;;;;;;;;;;;5154138;27;883;-60
2022/04/09 07:14:40;;;;;;;;;;;;;;;;;;5154985;27;823;-60
2022/04/09 07:17:06;;;;;;;;;;;;;;;;;;5155713;27;1958;-60
2022/04/09 07:19:31;;;;;;;;;;;;;;;;;;5155929;27;931;-60
2022/04/09 07:21:57;;;;;;;;;;;;;;;;;;5155363;27;828;-60
2022/04/09 07:24:23;;;;;;;;;;;;;;;;;;5155564;27;895;-60
2022/04/09 07:26:48;;;;;;;;;;;;;;;;;;5155683;27;899;-61
2022/04/09 07:29:13;;;;;;;;;;;;;;;;;;5137177;27;1021;-60
2022/04/09 07:31:38;;;;;;;;;;;;;;;;;;5155485;27;859;-61
2022/04/09 07:34:04;;;;;;;;;;;;;;;;;;5154622;27;1056;-61
2022/04/09 07:36:29;;;;;;;;;;;;;;;;;;5154651;27;1924;-61
2022/04/09 07:38:55;;;;;;;;;;;;;;;;;;5154358;27;1224;-59
2022/04/09 07:41:21;;;;;;;;;;;;;;;;;;5154575;27;931;-59
2022/04/09 07:43:46;;;;;;;;;;;;;;;;;;5154613;27;918;-59
2022/04/09 07:46:11;;;;;;;;;;;;;;;;;;5154927;27;773;-59
2022/04/09 07:48:37;;;;;;;;;;;;;;;;;;5154141;27;824;-59
2022/04/09 07:51:02;;;;;;;;;;;;;;;;;;5154920;27;915;-59
2022/04/09 07:53:27;;;;;;;;;;;;;;;;;;5154381;27;816;-59
2022/04/09 07:55:52;;;;;;;;;;;;;;;;;;5154094;27;2042;-59
2022/04/09 07:58:18;;;;;;;;;;;;;;;;;;5154355;27;994;-60
2022/04/09 08:00:44;;;;;;;;;;;;;;;;;;5136055;27;1227;-60
2022/04/09 08:03:09;;;;;;;;;;;;;;;;;;5154333;27;820;-60
2022/04/09 08:05:35;;;;;;;;;;;;;;;;;;5154249;27;923;-60
2022/04/09 08:08:01;;;;;;;;;;;;;;;;;;5153965;27;828;-60
2022/04/09 08:10:26;;;;;;;;;;;;;;;;;;5154109;27;738;-59
2022/04/09 08:12:53;;;;;;;;;;;;;;;;;;5153864;27;907;-60
2022/04/09 08:15:19;;;;;;;;;;;;;;;;;;5153969;27;1885;-59
2022/04/09 08:17:45;;;;;;;;;;;;;;;;;;5153730;27;811;-59
2022/04/09 08:20:13;;;;;;;;;;;;;;;;;;5153446;27;1244;-60
2022/04/09 08:22:38;;;;;;;;;;;;;;;;;;5153581;27;887;-60
2022/04/09 08:25:05;;;;;;;;;;;;;;;;;;5135071;27;773;-60
2022/04/09 08:27:30;;;;;;;;;;;;;;;;;;5153738;27;828;-59
2022/04/09 08:29:56;;;;;;;;;;;;;;;;;;5154057;27;808;-60
2022/04/09 08:32:23;;;;;;;;;;;;;;;;;;5153865;27;1024;-60
2022/04/09 08:34:49;;;;;;;;;;;;;;;;;;5153997;27;1973;-60
2022/04/09 08:37:15;;;;;;;;;;;;;;;;;;5153184;27;1102;-60
2022/04/09 08:39:40;;;;;;;;;;;;;;;;;;5134874;27;744;-59
2022/04/09 08:42:05;;;;;;;;;;;;;;;;;;5153648;27;844;-60
2022/04/09 08:44:31;;;;;;;;;;;;;;;;;;5153267;27;923;-60
2022/04/09 08:46:56;;;;;;;;;;;;;;;;;;5153644;27;804;-60
2022/04/09 08:49:22;;;;;;;;;;;;;;;;;;5154126;27;618;-59
2022/04/09 08:51:48;;;;;;;;;;;;;;;;;;5153294;27;823;-60
2022/04/09 08:54:13;;;;;;;;;;;;;;;;;;5134545;27;1164;-60
2022/04/09 08:56:39;;;;;;;;;;;;;;;;;;5153340;27;1917;-60
2022/04/09 08:59:04;;;;;;;;;;;;;;;;;;5153542;27;815;-60
2022/04/09 09:01:30;;;;;;;;;;;;;;;;;;5153635;27;1263;-60
2022/04/09 09:03:56;;;;;;;;;;;;;;;;;;5153566;27;855;-60
2022/04/09 09:06:27;;;;;;;;;;;;;;;;;;5153576;27;883;-60
2022/04/09 09:08:52;;;;;;;;;;;;;;;;;;5153767;27;875;-60
2022/04/09 09:11:19;;;;;;;;;;;;;;;;;;5117997;27;995;-60
2022/04/09 09:13:44;;;;;;;;;;;;;;;;;;5153657;27;863;-60
2022/04/09 09:16:13;;;;;;;;;;;;;;;;;;5151725;27;1968;-60
2022/04/09 09:18:39;;;;;;;;;;;;;;;;;;5153431;27;813;-60
2022/04/09 09:21:04;;;;;;;;;;;;;;;;;;5153797;27;856;-59
2022/04/09 09:23:30;;;;;;;;;;;;;;;;;;5153158;27;883;-59
2022/04/09 09:25:56;;;;;;;;;;;;;;;;;;5153756;27;1057;-60
2022/04/09 09:28:26;;;;;;;;;;;;;;;;;;5118165;27;1235;-60
2022/04/09 09:30:51;;;;;;;;;;;;;;;;;;5154145;27;911;-61
2022/04/09 09:33:17;;;;;;;;;;;;;;;;;;5153433;27;896;-60
2022/04/09 09:35:54;;;;;;;;;;;;;;;;;;5153544;27;1890;-60
2022/04/09 09:38:27;;;;;;;;;;;;;;;;;;5153506;27;1316;-60
2022/04/09 09:40:54;;;;;;;;;;;;;;;;;;5153690;27;1012;-60
2022/04/09 09:43:20;;;;;;;;;;;;;;;;;;5117742;27;868;-60
2022/04/09 09:45:46;;;;;;;;;;;;;;;;;;5153025;27;804;-60
2022/04/09 09:48:22;;;;;;;;;;;;;;;;;;5152893;27;923;-60
2022/04/09 09:50:47;;;;;;;;;;;;;;;;;;5152896;27;934;-60
2022/04/09 09:53:14;;;;;;;;;;;;;;;;;;5152499;27;1059;-60
2022/04/09 09:55:45;;;;;;;;;;;;;;;;;;5152666;27;1973;-59
2022/04/09 09:58:12;;;;;;;;;;;;;;;;;;5152018;27;832;-60
2022/04/09 10:00:38;;;;;;;;;;;;;;;;;;5152340;27;802;-60
2022/04/09 10:03:05;;;;;;;;;;;;;;;;;;5152648;27;847;-60
2022/04/09 10:05:30;;;;;;;;;;;;;;;;;;5152169;27;908;-59
2022/04/09 10:07:56;;;;;;;;;;;;;;;;;;5152745;27;864;-60
2022/04/09 10:10:24;;;;;;;;;;;;;;;;;;5152692;27;812;-60
2022/04/09 10:12:51;;;;;;;;;;;;;;;;;;5152838;27;916;-60
2022/04/09 10:15:16;;;;;;;;;;;;;;;;;;5152129;27;1881;-60
2022/04/09 10:17:42;;;;;;;;;;;;;;;;;;5152172;27;820;-60
2022/04/09 10:20:08;;;;;;;;;;;;;;;;;;5154377;27;836;-60
2022/04/09 10:22:39;;;;;;;;;;;;;;;;;;5156468;27;914;-60
2022/04/09 10:25:05;;;;;;;;;;;;;;;;;;5137880;27;1241;-60
2022/04/09 10:27:38;;;;;;;;;;;;;;;;;;5156383;27;927;-60
2022/04/09 10:30:28;;;;;;;;;;;;;;;;;;5156834;27;811;-60
2022/04/09 10:32:55;;;;;;;;;;;;;;;;;;5156602;27;970;-60
2022/04/09 10:35:31;;;;;;;;;;;;;;;;;;5156296;27;1897;-60
2022/04/09 10:38:15;;;;;;;;;;;;;;;;;;5156311;27;1047;-60
2022/04/09 10:40:43;;;;;;;;;;;;;;;;;;5156366;27;808;-60
2022/04/09 10:43:09;;;;;;;;;;;;;;;;;;5156289;27;895;-60
2022/04/09 10:48:30;;;;;;;;;;;;;;;;;;5122583;27;1234;-59
2022/04/09 10:50:59;;;;;;;;;;;;;;;;;;5137909;27;800;-59
2022/04/09 10:53:26;;;;;;;;;;;;;;;;;;5137011;27;836;-59
2022/04/09 10:56:27;;;;;;;;;;;;;;;;;;5156512;27;1935;-59
2022/04/09 10:59:01;;;;;;;;;;;;;;;;;;5156672;27;918;-60
2022/04/09 11:01:54;;;;;;;;;;;;;;;;;;5156190;27;942;-59
2022/04/09 11:04:25;;;;;;;;;;;;;;;;;;5137778;27;1229;-59
2022/04/09 11:07:03;;;;;;;;;;;;;;;;;;5156761;27;891;-61
2022/04/09 11:09:40;;;;;;;;;;;;;;;;;;5155982;27;845;-58
2022/04/09 11:12:06;;;;;;;;;;;;;;;;;;5156412;27;1208;-59
2022/04/09 11:14:41;;;;;;;;;;;;;;;;;;5155697;27;1241;-59
2022/04/09 11:17:16;;;;;;;;;;;;;;;;;;5156766;27;1905;-59
2022/04/09 11:19:42;;;;;;;;;;;;;;;;;;5156787;27;844;-59
2022/04/09 11:22:08;;;;;;;;;;;;;;;;;;5138314;27;943;-59
2022/04/09 11:24:37;;;;;;;;;;;;;;;;;;5155983;27;844;-59
2022/04/09 11:27:03;;;;;;;;;;;;;;;;;;5137785;27;800;-60
2022/04/09 11:29:35;;;;;;;;;;;;;;;;;;5155321;27;1023;-60
2022/04/09 11:32:00;;;;;;;;;;;;;;;;;;5136073;27;1197;-60
2022/04/09 11:34:26;;;;;;;;;;;;;;;;;;5156028;27;987;-60
2022/04/09 11:37:06;;;;;;;;;;;;;;;;;;5155877;27;1910;-59
2022/04/09 11:39:37;;;;;;;;;;;;;;;;;;5153138;27;1020;-60
2022/04/09 11:42:02;;;;;;;;;;;;;;;;;;5155232;27;934;-59
2022/04/09 11:44:28;;;;;;;;;;;;;;;;;;5155054;27;879;-59
2022/04/09 11:46:53;;;;;;;;;;;;;;;;;;5155618;27;1641;-59
2022/04/09 11:49:18;;;;;;;;;;;;;;;;;;5155056;27;1168;-60
2022/04/09 11:51:55;;;;;;;;;;;;;;;;;;5154794;27;828;-60
2022/04/09 11:54:21;;;;;;;;;;;;;;;;;;5154908;27;955;-59
2022/04/09 11:56:46;;;;;;;;;;;;;;;;;;5155136;27;1914;-60
2022/04/09 11:59:13;;;;;;;;;;;;;;;;;;5155008;27;805;-60
2022/04/09 12:01:39;;;;;;;;;;;;;;;;;;5154443;27;867;-60
2022/04/09 12:04:04;;;;;;;;;;;;;;;;;;5136124;27;1008;-60
2022/04/09 12:06:30;;;;;;;;;;;;;;;;;;5154341;27;867;-60
2022/04/09 12:08:55;;;;;;;;;;;;;;;;;;5155047;27;970;-60
2022/04/09 12:11:20;;;;;;;;;;;;;;;;;;5154912;27;821;-60
2022/04/09 12:13:46;;;;;;;;;;;;;;;;;;5154311;27;891;-60
2022/04/09 12:16:18;;;;;;;;;;;;;;;;;;5154516;27;1901;-60
2022/04/09 12:18:44;;;;;;;;;;;;;;;;;;5135549;27;854;-60
2022/04/09 12:21:23;;;;;;;;;;;;;;;;;;5154294;27;725;-60
2022/04/09 12:24:05;;;;;;;;;;;;;;;;;;5154139;27;957;-60
2022/04/09 12:26:32;;;;;;;;;;;;;;;;;;5154267;27;889;-60
2022/04/09 12:29:13;;;;;;;;;;;;;;;;;;5154946;27;832;-60
2022/04/09 12:31:42;;;;;;;;;;;;;;;;;;5154153;27;792;-60
2022/04/09 12:34:08;;;;;;;;;;;;;;;;;;5154940;27;1353;-60
2022/04/09 12:36:35;;;;;;;;;;;;;;;;;;5153775;27;1985;-60
2022/04/09 12:39:00;;;;;;;;;;;;;;;;;;5154187;27;1322;-60
2022/04/09 12:41:26;;;;;;;;;;;;;;;;;;5154126;27;820;-60
2022/04/09 12:43:55;;;;;;;;;;;;;;;;;;5154120;27;986;-60
2022/04/09 12:46:21;;;;;;;;;;;;;;;;;;5154644;27;824;-60
2022/04/09 12:48:47;;;;;;;;;;;;;;;;;;5153173;27;977;-60
2022/04/09 12:51:18;;;;;;;;;;;;;;;;;;5154114;27;851;-60
2022/04/09 12:53:44;;;;;;;;;;;;;;;;;;5153592;27;879;-60
2022/04/09 12:56:14;;;;;;;;;;;;;;;;;;5154380;27;1913;-61
2022/04/09 12:58:39;;;;;;;;;;;;;;;;;;5153429;27;871;-60
2022/04/09 13:01:05;;;;;;;;;;;;;;;;;;5154127;27;911;-61
2022/04/09 13:03:31;;;;;;;;;;;;;;;;;;5153402;27;840;-60
2022/04/09 13:05:56;;;;;;;;;;;;;;;;;;5153954;27;1006;-61
2022/04/09 13:08:22;;;;;;;;;;;;;;;;;;5153846;27;591;-61
2022/04/09 13:10:48;;;;;;;;;;;;;;;;;;5153426;27;898;-61
2022/04/09 13:13:13;;;;;;;;;;;;;;;;;;5154386;27;1119;-60
2022/04/09 13:15:38;;;;;;;;;;;;;;;;;;5153298;27;1964;-61
2022/04/09 13:18:04;;;;;;;;;;;;;;;;;;5153624;27;1139;-62
2022/04/09 13:20:29;;;;;;;;;;;;;;;;;;5154688;27;970;-64
2022/04/09 13:22:54;;;;;;;;;;;;;;;;;;5154441;27;957;-65
2022/04/09 13:25:20;;;;;;;;;;;;;;;;;;5152696;27;1064;-64
2022/04/09 13:27:47;;;;;;;;;;;;;;;;;;5152866;27;828;-63
2022/04/09 13:30:13;;;;;;;;;;;;;;;;;;5154078;27;835;-64
2022/04/09 13:32:38;;;;;;;;;;;;;;;;;;5153387;27;912;-65
2022/04/09 13:35:04;;;;;;;;;;;;;;;;;;5153991;27;1906;-65
2022/04/09 13:37:29;;;;;;;;;;;;;;;;;;5152977;27;1284;-66
2022/04/09 13:39:54;;;;;;;;;;;;;;;;;;5153618;27;1037;-64
2022/04/09 13:42:20;;;;;;;;;;;;;;;;;;5117484;27;1182;-65
2022/04/09 13:44:45;;;;;;;;;;;;;;;;;;5133963;27;939;-64
2022/04/09 13:47:12;;;;;;;;;;;;;;;;;;5152759;27;879;-64
2022/04/09 13:49:37;;;;;;;;;;;;;;;;;;5152431;27;875;-64
2022/04/09 13:52:03;;;;;;;;;;;;;;;;;;5153077;27;843;-64
2022/04/09 13:54:28;;;;;;;;;;;;;;;;;;5152178;27;1238;-63
2022/04/09 13:56:54;;;;;;;;;;;;;;;;;;5133859;27;1910;-64
2022/04/09 13:59:19;;;;;;;;;;;;;;;;;;5153254;27;954;-64
2022/04/09 14:01:45;;;;;;;;;;;;;;;;;;5133575;27;832;-63
2022/04/09 14:04:10;;;;;;;;;;;;;;;;;;5152626;27;777;-64
2022/04/09 14:06:35;;;;;;;;;;;;;;;;;;5153070;27;859;-63
2022/04/09 14:09:01;;;;;;;;;;;;;;;;;;5152694;27;1061;-63
2022/04/09 14:11:26;;;;;;;;;;;;;;;;;;5152605;27;875;-62
2022/04/09 14:13:52;;;;;;;;;;;;;;;;;;5152370;27;1017;-63
2022/04/09 14:16:17;;;;;;;;;;;;;;;;;;5134507;27;1893;-64
2022/04/09 14:18:43;;;;;;;;;;;;;;;;;;5152161;27;820;-63
2022/04/09 14:21:08;;;;;;;;;;;;;;;;;;5134095;27;874;-63
2022/04/09 14:23:34;;;;;;;;;;;;;;;;;;5133376;27;1002;-62
2022/04/09 14:25:59;;;;;;;;;;;;;;;;;;5133949;27;1225;-63
2022/04/09 14:28:26;;;;;;;;;;;;;;;;;;5152363;27;1053;-63
2022/04/09 14:30:52;;;;;;;;;;;;;;;;;;5133857;27;1210;-63
2022/04/09 14:33:20;;;;;;;;;;;;;;;;;;5152999;27;1030;-63
2022/04/09 14:35:45;;;;;;;;;;;;;;;;;;5152160;27;1886;-62
2022/04/09 14:38:10;;;;;;;;;;;;;;;;;;5133926;27;1241;-62
2022/04/09 14:40:37;;;;;;;;;;;;;;;;;;5133968;27;1439;-63
2022/04/09 14:43:03;;;;;;;;;;;;;;;;;;5134963;27;820;-64
2022/04/09 14:45:28;;;;;;;;;;;;;;;;;;5134489;27;959;-63
2022/04/09 14:47:53;;;;;;;;;;;;;;;;;;5152666;27;800;-64
2022/04/09 14:50:19;;;;;;;;;;;;;;;;;;5152610;27;892;-64
2022/04/09 14:52:44;;;;;;;;;;;;;;;;;;5152265;27;871;-65
2022/04/09 14:55:10;;;;;;;;;;;;;;;;;;5134005;27;1967;-66
2022/04/09 14:57:35;;;;;;;;;;;;;;;;;;5116968;27;1425;-63
2022/04/09 15:00:01;;;;;;;;;;;;;;;;;;5152529;27;923;-65
2022/04/09 15:02:27;;;;;;;;;;;;;;;;;;5134410;27;1166;-65
2022/04/09 15:04:52;;;;;;;;;;;;;;;;;;5152734;27;851;-63
2022/04/09 15:07:19;;;;;;;;;;;;;;;;;;5155978;27;813;-63
2022/04/09 15:09:44;;;;;;;;;;;;;;;;;;5156141;27;816;-64
2022/04/09 15:12:12;;;;;;;;;;;;;;;;;;5156264;27;828;-64
2022/04/09 15:14:37;;;;;;;;;;;;;;;;;;5156271;27;819;-64
2022/04/09 15:17:03;;;;;;;;;;;;;;;;;;5137269;27;1961;-64
2022/04/09 15:19:28;;;;;;;;;;;;;;;;;;5156298;27;835;-64
2022/04/09 15:21:54;;;;;;;;;;;;;;;;;;5156147;27;1061;-65
2022/04/09 15:24:19;;;;;;;;;;;;;;;;;;5120384;27;1371;-65
2022/04/09 15:26:44;;;;;;;;;;;;;;;;;;5155862;27;903;-65
2022/04/09 15:29:11;;;;;;;;;;;;;;;;;;5155892;27;777;-64
2022/04/09 15:31:36;;;;;;;;;;;;;;;;;;5155137;27;840;-64
2022/04/09 15:34:01;;;;;;;;;;;;;;;;;;5156117;27;873;-65
2022/04/09 15:36:27;;;;;;;;;;;;;;;;;;5137535;27;1953;-63
2022/04/09 15:38:52;;;;;;;;;;;;;;;;;;5155520;27;1148;-63
2022/04/09 15:41:18;;;;;;;;;;;;;;;;;;5141007;27;1602;-63
2022/04/09 15:43:43;;;;;;;;;;;;;;;;;;5115109;27;1191;-63
2022/04/09 15:46:09;;;;;;;;;;;;;;;;;;5134187;27;1072;-62
2022/04/09 15:48:35;;;;;;;;;;;;;;;;;;5115927;27;1169;-62
2022/04/09 15:51:00;;;;;;;;;;;;;;;;;;5134057;27;836;-62
2022/04/09 15:53:26;;;;;;;;;;;;;;;;;;5134411;27;820;-63
2022/04/09 15:55:51;;;;;;;;;;;;;;;;;;5133844;27;1971;-63
2022/04/09 15:58:16;;;;;;;;;;;;;;;;;;5134887;27;886;-63
2022/04/09 16:00:41;;;;;;;;;;;;;;;;;;5134720;27;872;-63
2022/04/09 16:03:06;;;;;;;;;;;;;;;;;;5134342;27;919;-63
2022/04/09 16:05:32;;;;;;;;;;;;;;;;;;5116560;27;899;-64
2022/04/09 16:07:57;;;;;;;;;;;;;;;;;;5133763;27;900;-64
2022/04/09 16:10:22;;;;;;;;;;;;;;;;;;5134842;27;895;-63
2022/04/09 16:12:48;;;;;;;;;;;;;;;;;;5133874;27;831;-63
2022/04/09 16:15:16;;;;;;;;;;;;;;;;;;5134182;27;1893;-64
2022/04/09 16:17:41;;;;;;;;;;;;;;;;;;5133270;27;867;-63
2022/04/09 16:20:07;;;;;;;;;;;;;;;;;;5134102;27;883;-63
2022/04/09 16:22:33;;;;;;;;;;;;;;;;;;5133691;27;1359;-63
2022/04/09 16:25:00;;;;;;;;;;;;;;;;;;5133708;27;792;-64
2022/04/09 16:27:26;;;;;;;;;;;;;;;;;;5133902;27;927;-63
2022/04/09 16:29:51;;;;;;;;;;;;;;;;;;5133556;27;853;-63
2022/04/09 16:32:16;;;;;;;;;;;;;;;;;;5133827;27;987;-64
2022/04/09 16:34:43;;;;;;;;;;;;;;;;;;5133723;27;793;-64
2022/04/09 16:37:08;;;;;;;;;;;;;;;;;;5133716;27;1969;-63
2022/04/09 16:39:34;;;;;;;;;;;;;;;;;;5133829;27;1300;-63
2022/04/09 16:41:59;;;;;;;;;;;;;;;;;;5133368;27;821;-63
2022/04/09 16:44:26;;;;;;;;;;;;;;;;;;5134158;27;1045;-63
2022/04/09 16:46:51;;;;;;;;;;;;;;;;;;5133838;27;872;-62
2022/04/09 16:49:17;;;;;;;;;;;;;;;;;;5133861;27;840;-62
2022/04/09 16:51:42;;;;;;;;;;;;;;;;;;5133481;27;820;-62
2022/04/09 16:54:07;;;;;;;;;;;;;;;;;;5133256;27;820;-64
2022/04/09 16:56:32;;;;;;;;;;;;;;;;;;5133305;27;1917;-63
2022/04/09 16:58:58;;;;;;;;;;;;;;;;;;5133318;27;809;-63
2022/04/09 17:01:23;;;;;;;;;;;;;;;;;;5133229;27;863;-64
2022/04/09 17:03:48;;;;;;;;;;;;;;;;;;5114080;27;974;-64
2022/04/09 17:06:14;;;;;;;;;;;;;;;;;;5132781;27;907;-63
2022/04/09 17:08:39;;;;;;;;;;;;;;;;;;5132718;27;847;-64
2022/04/09 17:11:11;;;;;;;;;;;;;;;;;;5113747;27;1064;-64
2022/04/09 17:13:40;;;;;;;;;;;;;;;;;;5133282;27;907;-64